sensor_id;sensor_type;location;lat;lon;timestamp;temperature;humidity
6520;DHT22;3293;51.690;5.982;2022-09-09T00:03:14;14.10;99.90
6520;DHT22;3293;51.690;5.982;2022-09-09T00:08:22;14.00;99.90
6520;DHT22;3293;51.690;5.982;2022-09-09T00:18:55;13.90;99.90
6520;DHT22;3293;51.690;5.982;2022-09-09T00:23:57;13.90;99.90
6520;DHT22;3293;51.690;5.982;2022-09-09T00:34:17;13.90;99.90
6520;DHT22;3293;51.690;5.982;2022-09-09T00:44:35;13.80;99.90
6520;DHT22;3293;51.690;5.982;2022-09-09T00:50:00;13.80;99.90
6520;DHT22;3293;51.690;5.982;2022-09-09T01:00:27;13.70;99.90
6520;DHT22;3293;51.690;5.982;2022-09-09T01:05:34;13.60;99.90
6520;DHT22;3293;51.690;5.982;2022-09-09T01:10:41;13.60;99.90
6520;DHT22;3293;51.690;5.982;2022-09-09T01:15:46;13.60;99.90
6520;DHT22;3293;51.690;5.982;2022-09-09T01:21:09;13.50;99.90
6520;DHT22;3293;51.690;5.982;2022-09-09T01:31:35;13.50;99.90
6520;DHT22;3293;51.690;5.982;2022-09-09T01:36:50;13.60;99.90
6520;DHT22;3293;51.690;5.982;2022-09-09T01:41:52;13.50;99.90
6520;DHT22;3293;51.690;5.982;2022-09-09T01:46:53;13.50;99.90
6520;DHT22;3293;51.690;5.982;2022-09-09T01:51:54;13.40;99.90
6520;DHT22;3293;51.690;5.982;2022-09-09T01:57:18;13.40;99.90
6520;DHT22;3293;51.690;5.982;2022-09-09T02:02:29;13.40;99.90
6520;DHT22;3293;51.690;5.982;2022-09-09T02:12:30;13.30;99.90
6520;DHT22;3293;51.690;5.982;2022-09-09T02:17:35;13.20;99.90
6520;DHT22;3293;51.690;5.982;2022-09-09T02:22:38;13.30;99.90
6520;DHT22;3293;51.690;5.982;2022-09-09T02:27:41;13.30;99.90
6520;DHT22;3293;51.690;5.982;2022-09-09T02:32:44;13.30;99.90
6520;DHT22;3293;51.690;5.982;2022-09-09T02:37:46;13.20;99.90
6520;DHT22;3293;51.690;5.982;2022-09-09T02:42:47;13.20;99.90
6520;DHT22;3293;51.690;5.982;2022-09-09T02:47:58;13.20;99.90
6520;DHT22;3293;51.690;5.982;2022-09-09T02:54:16;13.30;99.90
6520;DHT22;3293;51.690;5.982;2022-09-09T02:58:43;13.20;99.90
6520;DHT22;3293;51.690;5.982;2022-09-09T03:03:43;13.30;99.90
6520;DHT22;3293;51.690;5.982;2022-09-09T03:08:43;13.20;99.90
6520;DHT22;3293;51.690;5.982;2022-09-09T03:13:43;13.30;99.90
6520;DHT22;3293;51.690;5.982;2022-09-09T03:18:43;13.40;99.90
6520;DHT22;3293;51.690;5.982;2022-09-09T03:23:44;13.40;99.90
6520;DHT22;3293;51.690;5.982;2022-09-09T03:28:44;13.40;99.90
6520;DHT22;3293;51.690;5.982;2022-09-09T03:33:44;13.40;99.90
6520;DHT22;3293;51.690;5.982;2022-09-09T03:38:44;13.50;99.90
6520;DHT22;3293;51.690;5.982;2022-09-09T03:43:44;13.50;99.90
6520;DHT22;3293;51.690;5.982;2022-09-09T03:48:44;13.50;99.90
6520;DHT22;3293;51.690;5.982;2022-09-09T03:53:44;13.70;99.90
6520;DHT22;3293;51.690;5.982;2022-09-09T03:58:44;13.80;99.90
6520;DHT22;3293;51.690;5.982;2022-09-09T04:03:44;13.80;99.90
6520;DHT22;3293;51.690;5.982;2022-09-09T04:08:47;13.90;99.90
6520;DHT22;3293;51.690;5.982;2022-09-09T04:13:51;13.90;99.90
6520;DHT22;3293;51.690;5.982;2022-09-09T04:18:51;14.00;99.90
6520;DHT22;3293;51.690;5.982;2022-09-09T04:23:52;14.00;99.90
6520;DHT22;3293;51.690;5.982;2022-09-09T04:28:52;14.00;99.90
6520;DHT22;3293;51.690;5.982;2022-09-09T04:33:52;14.10;99.90
6520;DHT22;3293;51.690;5.982;2022-09-09T04:38:52;14.10;99.90
6520;DHT22;3293;51.690;5.982;2022-09-09T04:43:52;14.10;99.90
6520;DHT22;3293;51.690;5.982;2022-09-09T04:48:53;14.20;99.90
6520;DHT22;3293;51.690;5.982;2022-09-09T04:53:53;14.20;99.90
6520;DHT22;3293;51.690;5.982;2022-09-09T04:58:53;14.20;99.90
6520;DHT22;3293;51.690;5.982;2022-09-09T05:03:55;14.30;99.90
6520;DHT22;3293;51.690;5.982;2022-09-09T05:08:55;14.30;99.90
6520;DHT22;3293;51.690;5.982;2022-09-09T05:13:55;14.40;99.90
6520;DHT22;3293;51.690;5.982;2022-09-09T05:18:56;14.40;99.90
6520;DHT22;3293;51.690;5.982;2022-09-09T05:23:56;14.40;99.90
6520;DHT22;3293;51.690;5.982;2022-09-09T05:28:56;14.40;99.90
6520;DHT22;3293;51.690;5.982;2022-09-09T05:33:56;14.50;99.90
6520;DHT22;3293;51.690;5.982;2022-09-09T05:38:56;14.60;99.90
6520;DHT22;3293;51.690;5.982;2022-09-09T05:43:56;14.60;99.90
6520;DHT22;3293;51.690;5.982;2022-09-09T05:48:58;14.70;99.90
6520;DHT22;3293;51.690;5.982;2022-09-09T05:53:58;14.70;99.90
6520;DHT22;3293;51.690;5.982;2022-09-09T05:58:58;14.70;99.90
6520;DHT22;3293;51.690;5.982;2022-09-09T06:04:00;14.80;99.90
6520;DHT22;3293;51.690;5.982;2022-09-09T06:09:00;15.00;99.90
6520;DHT22;3293;51.690;5.982;2022-09-09T06:14:00;15.20;99.90
6520;DHT22;3293;51.690;5.982;2022-09-09T06:19:01;15.30;99.90
6520;DHT22;3293;51.690;5.982;2022-09-09T06:24:03;15.50;99.90
6520;DHT22;3293;51.690;5.982;2022-09-09T06:29:04;15.80;99.90
6520;DHT22;3293;51.690;5.982;2022-09-09T06:34:06;16.10;99.90
6520;DHT22;3293;51.690;5.982;2022-09-09T06:39:06;16.50;99.90
6520;DHT22;3293;51.690;5.982;2022-09-09T06:44:08;16.80;99.90
6520;DHT22;3293;51.690;5.982;2022-09-09T06:49:09;17.10;99.90
6520;DHT22;3293;51.690;5.982;2022-09-09T06:54:10;17.40;99.90
6520;DHT22;3293;51.690;5.982;2022-09-09T06:59:11;17.80;99.90
6520;DHT22;3293;51.690;5.982;2022-09-09T07:04:12;18.30;99.90
6520;DHT22;3293;51.690;5.982;2022-09-09T07:09:15;18.60;99.90
6520;DHT22;3293;51.690;5.982;2022-09-09T07:14:16;19.70;99.90
6520;DHT22;3293;51.690;5.982;2022-09-09T07:19:17;19.50;99.90
6520;DHT22;3293;51.690;5.982;2022-09-09T07:24:16;18.60;99.90
6520;DHT22;3293;51.690;5.982;2022-09-09T07:29:16;18.30;99.90
6520;DHT22;3293;51.690;5.982;2022-09-09T07:34:16;18.10;99.90
6520;DHT22;3293;51.690;5.982;2022-09-09T07:39:16;18.70;99.90
6520;DHT22;3293;51.690;5.982;2022-09-09T07:44:22;19.30;99.90
6520;DHT22;3293;51.690;5.982;2022-09-09T07:49:22;19.90;99.90
6520;DHT22;3293;51.690;5.982;2022-09-09T07:54:22;20.80;99.90
6520;DHT22;3293;51.690;5.982;2022-09-09T07:59:23;22.30;99.90
6520;DHT22;3293;51.690;5.982;2022-09-09T08:04:24;22.00;99.90
6520;DHT22;3293;51.690;5.982;2022-09-09T08:09:26;20.70;99.90
6520;DHT22;3293;51.690;5.982;2022-09-09T08:14:31;20.10;99.90
6520;DHT22;3293;51.690;5.982;2022-09-09T08:19:32;19.60;99.90
6520;DHT22;3293;51.690;5.982;2022-09-09T08:24:35;19.20;99.90
6520;DHT22;3293;51.690;5.982;2022-09-09T08:29:35;19.30;99.90
6520;DHT22;3293;51.690;5.982;2022-09-09T08:34:37;19.80;99.90
6520;DHT22;3293;51.690;5.982;2022-09-09T08:39:37;19.60;99.90
6520;DHT22;3293;51.690;5.982;2022-09-09T08:55:45;19.90;99.90
6520;DHT22;3293;51.690;5.982;2022-09-09T09:12:19;21.40;99.90
6520;DHT22;3293;51.690;5.982;2022-09-09T09:17:21;20.80;99.90
6520;DHT22;3293;51.690;5.982;2022-09-09T09:22:35;20.10;99.90
6520;DHT22;3293;51.690;5.982;2022-09-09T09:34:07;20.10;99.90
6520;DHT22;3293;51.690;5.982;2022-09-09T09:38:58;20.70;99.90
6520;DHT22;3293;51.690;5.982;2022-09-09T09:43:59;20.70;99.60
6520;DHT22;3293;51.690;5.982;2022-09-09T09:49:03;20.40;99.90
6520;DHT22;3293;51.690;5.982;2022-09-09T10:04:22;19.00;99.90
6520;DHT22;3293;51.690;5.982;2022-09-09T10:09:28;19.10;99.90
6520;DHT22;3293;51.690;5.982;2022-09-09T10:14:45;19.00;99.90
6520;DHT22;3293;51.690;5.982;2022-09-09T10:40:43;19.30;99.90
6520;DHT22;3293;51.690;5.982;2022-09-09T10:46:15;19.10;99.90
6520;DHT22;3293;51.690;5.982;2022-09-09T10:56:26;19.60;99.90
6520;DHT22;3293;51.690;5.982;2022-09-09T11:01:53;19.90;99.90
6520;DHT22;3293;51.690;5.982;2022-09-09T11:06:56;19.70;99.90
6520;DHT22;3293;51.690;5.982;2022-09-09T11:11:58;19.50;99.90
6520;DHT22;3293;51.690;5.982;2022-09-09T11:17:02;19.40;99.90
6520;DHT22;3293;51.690;5.982;2022-09-09T11:27:29;19.30;99.90
6520;DHT22;3293;51.690;5.982;2022-09-09T11:42:43;18.30;99.90
6520;DHT22;3293;51.690;5.982;2022-09-09T11:47:52;18.00;99.90
6520;DHT22;3293;51.690;5.982;2022-09-09T11:58:17;17.60;99.90
6520;DHT22;3293;51.690;5.982;2022-09-09T12:03:39;17.30;99.90
6520;DHT22;3293;51.690;5.982;2022-09-09T12:08:47;17.00;99.90
6520;DHT22;3293;51.690;5.982;2022-09-09T12:13:59;17.00;99.90
6520;DHT22;3293;51.690;5.982;2022-09-09T12:24:14;17.90;99.90
6520;DHT22;3293;51.690;5.982;2022-09-09T12:29:34;18.50;99.90
6520;DHT22;3293;51.690;5.982;2022-09-09T12:34:41;18.90;99.90
6520;DHT22;3293;51.690;5.982;2022-09-09T12:39:47;19.30;99.90
6520;DHT22;3293;51.690;5.982;2022-09-09T12:44:57;19.20;99.90
6520;DHT22;3293;51.690;5.982;2022-09-09T12:49:57;18.90;99.90
6520;DHT22;3293;51.690;5.982;2022-09-09T12:54:59;18.90;99.90
6520;DHT22;3293;51.690;5.982;2022-09-09T13:00:18;19.00;99.90
6520;DHT22;3293;51.690;5.982;2022-09-09T13:10:29;20.00;99.90
6520;DHT22;3293;51.690;5.982;2022-09-09T13:15:30;20.20;99.90
6520;DHT22;3293;51.690;5.982;2022-09-09T13:20:30;20.30;99.90
6520;DHT22;3293;51.690;5.982;2022-09-09T13:25:30;20.30;99.90
6520;DHT22;3293;51.690;5.982;2022-09-09T13:30:37;19.80;99.90
6520;DHT22;3293;51.690;5.982;2022-09-09T13:40:57;19.90;99.90
6520;DHT22;3293;51.690;5.982;2022-09-09T13:46:01;19.50;99.90
6520;DHT22;3293;51.690;5.982;2022-09-09T13:51:03;19.20;99.90
6520;DHT22;3293;51.690;5.982;2022-09-09T13:56:05;18.90;99.90
6520;DHT22;3293;51.690;5.982;2022-09-09T14:01:05;18.70;99.90
6520;DHT22;3293;51.690;5.982;2022-09-09T14:06:05;18.60;99.90
6520;DHT22;3293;51.690;5.982;2022-09-09T14:11:05;18.70;99.90
6520;DHT22;3293;51.690;5.982;2022-09-09T14:16:05;18.60;99.90
6520;DHT22;3293;51.690;5.982;2022-09-09T14:21:05;18.70;99.90
6520;DHT22;3293;51.690;5.982;2022-09-09T14:26:05;18.80;99.90
6520;DHT22;3293;51.690;5.982;2022-09-09T14:31:06;18.90;99.90
6520;DHT22;3293;51.690;5.982;2022-09-09T14:36:06;19.00;99.90
6520;DHT22;3293;51.690;5.982;2022-09-09T14:41:08;19.20;99.90
6520;DHT22;3293;51.690;5.982;2022-09-09T14:46:21;19.50;99.90
6520;DHT22;3293;51.690;5.982;2022-09-09T14:51:23;20.10;99.90
6520;DHT22;3293;51.690;5.982;2022-09-09T14:56:27;20.20;99.90
6520;DHT22;3293;51.690;5.982;2022-09-09T15:01:28;20.20;99.90
6520;DHT22;3293;51.690;5.982;2022-09-09T15:06:30;20.10;99.90
6520;DHT22;3293;51.690;5.982;2022-09-09T15:11:36;20.10;99.90
6520;DHT22;3293;51.690;5.982;2022-09-09T15:16:38;19.80;99.90
6520;DHT22;3293;51.690;5.982;2022-09-09T15:21:38;20.00;99.90
6520;DHT22;3293;51.690;5.982;2022-09-09T15:26:38;20.20;99.90
6520;DHT22;3293;51.690;5.982;2022-09-09T15:31:38;20.20;99.90
6520;DHT22;3293;51.690;5.982;2022-09-09T15:36:40;20.00;99.90
6520;DHT22;3293;51.690;5.982;2022-09-09T15:41:45;19.60;99.90
6520;DHT22;3293;51.690;5.982;2022-09-09T15:46:49;19.30;99.90
6520;DHT22;3293;51.690;5.982;2022-09-09T15:51:57;19.10;99.90
6520;DHT22;3293;51.690;5.982;2022-09-09T15:57:00;19.10;99.90
6520;DHT22;3293;51.690;5.982;2022-09-09T16:02:00;18.90;99.90
6520;DHT22;3293;51.690;5.982;2022-09-09T16:07:03;18.70;99.90
6520;DHT22;3293;51.690;5.982;2022-09-09T16:12:04;18.70;99.90
6520;DHT22;3293;51.690;5.982;2022-09-09T16:17:09;18.70;99.90
6520;DHT22;3293;51.690;5.982;2022-09-09T16:22:09;18.60;99.90
6520;DHT22;3293;51.690;5.982;2022-09-09T16:27:09;17.70;99.90
6520;DHT22;3293;51.690;5.982;2022-09-09T16:32:11;17.00;99.90
6520;DHT22;3293;51.690;5.982;2022-09-09T16:37:11;16.60;99.90
6520;DHT22;3293;51.690;5.982;2022-09-09T16:42:11;16.50;99.90
6520;DHT22;3293;51.690;5.982;2022-09-09T16:47:11;16.50;99.90
6520;DHT22;3293;51.690;5.982;2022-09-09T16:52:11;16.40;99.90
6520;DHT22;3293;51.690;5.982;2022-09-09T16:57:11;16.40;99.90
6520;DHT22;3293;51.690;5.982;2022-09-09T17:02:11;16.40;99.90
6520;DHT22;3293;51.690;5.982;2022-09-09T17:07:11;16.30;99.90
6520;DHT22;3293;51.690;5.982;2022-09-09T17:12:11;16.40;99.90
6520;DHT22;3293;51.690;5.982;2022-09-09T17:17:12;16.30;99.90
6520;DHT22;3293;51.690;5.982;2022-09-09T17:22:12;16.30;99.90
6520;DHT22;3293;51.690;5.982;2022-09-09T17:27:12;16.30;99.90
6520;DHT22;3293;51.690;5.982;2022-09-09T17:32:12;16.30;99.90
6520;DHT22;3293;51.690;5.982;2022-09-09T17:37:14;16.20;99.90
6520;DHT22;3293;51.690;5.982;2022-09-09T17:42:14;16.20;99.90
6520;DHT22;3293;51.690;5.982;2022-09-09T17:47:14;16.10;99.90
6520;DHT22;3293;51.690;5.982;2022-09-09T17:52:14;15.90;99.90
6520;DHT22;3293;51.690;5.982;2022-09-09T17:57:16;15.80;99.90
6520;DHT22;3293;51.690;5.982;2022-09-09T18:02:18;15.80;99.90
6520;DHT22;3293;51.690;5.982;2022-09-09T18:07:18;15.80;99.90
6520;DHT22;3293;51.690;5.982;2022-09-09T18:12:18;15.80;99.90
6520;DHT22;3293;51.690;5.982;2022-09-09T18:17:18;15.80;99.90
6520;DHT22;3293;51.690;5.982;2022-09-09T18:22:18;15.70;99.90
6520;DHT22;3293;51.690;5.982;2022-09-09T18:27:18;15.70;99.90
6520;DHT22;3293;51.690;5.982;2022-09-09T18:32:18;15.70;99.90
6520;DHT22;3293;51.690;5.982;2022-09-09T18:37:18;15.50;99.90
6520;DHT22;3293;51.690;5.982;2022-09-09T18:42:18;15.40;99.90
6520;DHT22;3293;51.690;5.982;2022-09-09T18:47:18;15.30;99.90
6520;DHT22;3293;51.690;5.982;2022-09-09T18:52:20;15.30;99.90
6520;DHT22;3293;51.690;5.982;2022-09-09T18:57:20;15.30;99.90
6520;DHT22;3293;51.690;5.982;2022-09-09T19:02:20;15.30;99.90
6520;DHT22;3293;51.690;5.982;2022-09-09T19:07:20;15.30;99.90
6520;DHT22;3293;51.690;5.982;2022-09-09T19:12:21;15.20;99.90
6520;DHT22;3293;51.690;5.982;2022-09-09T19:17:21;15.10;99.90
6520;DHT22;3293;51.690;5.982;2022-09-09T19:22:21;15.10;99.90
6520;DHT22;3293;51.690;5.982;2022-09-09T19:27:21;15.00;99.90
6520;DHT22;3293;51.690;5.982;2022-09-09T19:32:21;15.00;99.90
6520;DHT22;3293;51.690;5.982;2022-09-09T19:37:21;15.00;99.90
6520;DHT22;3293;51.690;5.982;2022-09-09T19:42:21;14.90;99.90
6520;DHT22;3293;51.690;5.982;2022-09-09T19:47:21;14.90;99.90
6520;DHT22;3293;51.690;5.982;2022-09-09T19:52:22;14.90;99.90
6520;DHT22;3293;51.690;5.982;2022-09-09T19:57:22;14.90;99.90
6520;DHT22;3293;51.690;5.982;2022-09-09T20:02:22;14.90;99.90
6520;DHT22;3293;51.690;5.982;2022-09-09T20:07:23;14.90;99.90
6520;DHT22;3293;51.690;5.982;2022-09-09T20:12:24;15.00;99.90
6520;DHT22;3293;51.690;5.982;2022-09-09T20:17:24;15.00;99.90
6520;DHT22;3293;51.690;5.982;2022-09-09T20:22:23;14.90;99.90
6520;DHT22;3293;51.690;5.982;2022-09-09T20:27:23;15.00;99.90
6520;DHT22;3293;51.690;5.982;2022-09-09T20:32:23;14.90;99.90
6520;DHT22;3293;51.690;5.982;2022-09-09T20:37:24;14.90;99.90
6520;DHT22;3293;51.690;5.982;2022-09-09T20:42:24;14.90;99.90
6520;DHT22;3293;51.690;5.982;2022-09-09T20:47:24;14.90;99.90
6520;DHT22;3293;51.690;5.982;2022-09-09T20:52:25;14.90;99.90
6520;DHT22;3293;51.690;5.982;2022-09-09T20:57:25;14.80;99.90
6520;DHT22;3293;51.690;5.982;2022-09-09T21:02:25;14.80;99.90
6520;DHT22;3293;51.690;5.982;2022-09-09T21:07:25;14.80;99.90
6520;DHT22;3293;51.690;5.982;2022-09-09T21:12:26;14.80;99.90
6520;DHT22;3293;51.690;5.982;2022-09-09T21:17:26;14.80;99.90
6520;DHT22;3293;51.690;5.982;2022-09-09T21:22:27;14.90;99.90
6520;DHT22;3293;51.690;5.982;2022-09-09T21:27:28;14.90;99.90
6520;DHT22;3293;51.690;5.982;2022-09-09T21:32:28;15.00;99.90
6520;DHT22;3293;51.690;5.982;2022-09-09T21:37:28;15.00;99.90
6520;DHT22;3293;51.690;5.982;2022-09-09T21:42:28;14.90;99.90
6520;DHT22;3293;51.690;5.982;2022-09-09T21:47:29;15.00;99.90
6520;DHT22;3293;51.690;5.982;2022-09-09T21:52:31;15.00;99.90
6520;DHT22;3293;51.690;5.982;2022-09-09T21:57:31;14.90;99.90
6520;DHT22;3293;51.690;5.982;2022-09-09T22:02:31;14.80;99.90
6520;DHT22;3293;51.690;5.982;2022-09-09T22:07:34;14.80;99.90
6520;DHT22;3293;51.690;5.982;2022-09-09T22:12:35;14.70;99.90
6520;DHT22;3293;51.690;5.982;2022-09-09T22:17:35;14.60;99.90
6520;DHT22;3293;51.690;5.982;2022-09-09T22:22:35;14.60;99.90
6520;DHT22;3293;51.690;5.982;2022-09-09T22:27:35;14.60;99.90
6520;DHT22;3293;51.690;5.982;2022-09-09T22:32:35;14.70;99.90
6520;DHT22;3293;51.690;5.982;2022-09-09T22:37:35;14.70;99.90
6520;DHT22;3293;51.690;5.982;2022-09-09T22:42:35;14.70;99.90
6520;DHT22;3293;51.690;5.982;2022-09-09T22:47:35;14.60;99.90
6520;DHT22;3293;51.690;5.982;2022-09-09T22:52:36;14.60;99.90
6520;DHT22;3293;51.690;5.982;2022-09-09T22:57:36;14.50;99.90
6520;DHT22;3293;51.690;5.982;2022-09-09T23:02:36;14.40;99.90
6520;DHT22;3293;51.690;5.982;2022-09-09T23:07:37;14.40;99.90
6520;DHT22;3293;51.690;5.982;2022-09-09T23:12:38;14.40;99.90
6520;DHT22;3293;51.690;5.982;2022-09-09T23:17:39;14.30;99.90
6520;DHT22;3293;51.690;5.982;2022-09-09T23:22:39;14.30;99.90
6520;DHT22;3293;51.690;5.982;2022-09-09T23:27:39;14.30;99.90
6520;DHT22;3293;51.690;5.982;2022-09-09T23:32:40;14.20;99.90
6520;DHT22;3293;51.690;5.982;2022-09-09T23:37:40;14.20;99.90
6520;DHT22;3293;51.690;5.982;2022-09-09T23:42:40;14.20;99.90
6520;DHT22;3293;51.690;5.982;2022-09-09T23:47:40;14.30;99.90
6520;DHT22;3293;51.690;5.982;2022-09-09T23:52:40;14.30;99.90
6520;DHT22;3293;51.690;5.982;2022-09-09T23:57:42;14.40;99.90
